Time;durP1;ratioP1;P1;durP2;ratioP2;P2;SDS_P1;SDS_P2;PMS_P1;PMS_P2;Temp;Humidity;BMP_temperature;BMP_pressure;BME280_temperature;BME280_humidity;BME280_pressure;Samples;Min_cycle;Max_cycle;Signal;HPM_P1;HPM_P2
2024/01/19 00:01:23;;;;;;;25.27;12.55;;;;;;;;;;7392765;19;20526;-75
2024/01/19 00:03:48;;;;;;;27.55;13.43;;;;;;;;;;7367706;19;20021;-75
2024/01/19 00:06:15;;;;;;;27.83;12.63;;;;;;;;;;7366969;19;20022;-75
2024/01/19 00:08:40;;;;;;;25.20;11.80;;;;;;;;;;7366508;19;20014;-75
2024/01/19 00:11:05;;;;;;;30.75;14.52;;;;;;;;;;7367433;19;20150;-75
2024/01/19 00:13:31;;;;;;;22.02;12.50;;;;;;;;;;7388048;19;20006;-74
2024/01/19 00:15:56;;;;;;;27.65;13.45;;;;;;;;;;7366246;19;20074;-74
2024/01/19 00:18:23;;;;;;;30.48;14.88;;;;;;;;;;7366025;19;20015;-74
2024/01/19 00:20:49;;;;;;;28.00;13.25;;;;;;;;;;7365975;19;20031;-75
2024/01/19 00:23:15;;;;;;;27.73;13.90;;;;;;;;;;7370545;19;20010;-75
2024/01/19 00:25:40;;;;;;;32.00;14.60;;;;;;;;;;7372130;19;20009;-75
2024/01/19 00:28:06;;;;;;;27.48;14.35;;;;;;;;;;7388087;19;20023;-74
2024/01/19 00:30:31;;;;;;;30.52;13.38;;;;;;;;;;7369213;19;20015;-74
2024/01/19 00:32:57;;;;;;;31.42;14.05;;;;;;;;;;7368369;19;20041;-75
2024/01/19 00:35:22;;;;;;;31.35;15.00;;;;;;;;;;7370108;19;20010;-76
2024/01/19 00:37:48;;;;;;;34.72;16.55;;;;;;;;;;7369744;19;20030;-75
2024/01/19 00:40:13;;;;;;;32.45;16.55;;;;;;;;;;7393150;19;20003;-76
2024/01/19 00:42:39;;;;;;;33.28;15.60;;;;;;;;;;7367262;19;20064;-76
2024/01/19 00:45:07;;;;;;;25.35;13.65;;;;;;;;;;7368881;19;20070;-74
2024/01/19 00:47:34;;;;;;;34.60;15.70;;;;;;;;;;7371787;19;20070;-75
2024/01/19 00:49:59;;;;;;;30.92;15.23;;;;;;;;;;7373418;19;19995;-75
2024/01/19 00:52:25;;;;;;;33.22;14.65;;;;;;;;;;7392145;19;20019;-75
2024/01/19 00:54:50;;;;;;;31.25;15.38;;;;;;;;;;7369114;19;20095;-75
2024/01/19 00:57:16;;;;;;;37.65;16.27;;;;;;;;;;7369044;19;20011;-75
2024/01/19 00:59:41;;;;;;;31.77;15.45;;;;;;;;;;7375126;19;20018;-75
2024/01/19 01:02:06;;;;;;;32.78;15.80;;;;;;;;;;7376638;19;20043;-75
2024/01/19 01:04:32;;;;;;;32.67;16.17;;;;;;;;;;7394142;19;20736;-75
2024/01/19 01:06:57;;;;;;;35.80;17.05;;;;;;;;;;7371499;19;20010;-74
2024/01/19 01:09:22;;;;;;;27.88;13.82;;;;;;;;;;7372093;19;20553;-75
2024/01/19 01:11:48;;;;;;;27.48;12.38;;;;;;;;;;7368996;19;20041;-74
2024/01/19 01:14:15;;;;;;;29.85;13.43;;;;;;;;;;7368097;19;20021;-75
2024/01/19 01:16:40;;;;;;;30.13;13.43;;;;;;;;;;7370069;19;20023;-75
2024/01/19 01:19:06;;;;;;;28.85;13.55;;;;;;;;;;7389507;19;20010;-75
2024/01/19 01:21:31;;;;;;;27.00;13.13;;;;;;;;;;7368409;19;20002;-75
2024/01/19 01:23:56;;;;;;;24.48;12.90;;;;;;;;;;7369211;19;20118;-75
2024/01/19 01:26:22;;;;;;;32.13;13.50;;;;;;;;;;7369631;19;20014;-74
2024/01/19 01:28:47;;;;;;;28.35;13.32;;;;;;;;;;7370138;19;20021;-74
2024/01/19 01:31:12;;;;;;;29.48;13.55;;;;;;;;;;7391771;19;20782;-75
2024/01/19 01:33:38;;;;;;;28.13;12.27;;;;;;;;;;7367567;19;20049;-75
2024/01/19 01:36:03;;;;;;;28.00;13.57;;;;;;;;;;7368350;19;20052;-75
2024/01/19 01:38:28;;;;;;;26.08;12.82;;;;;;;;;;7367215;19;20065;-75
2024/01/19 01:40:54;;;;;;;30.50;12.88;;;;;;;;;;7368453;19;20024;-74
2024/01/19 01:43:24;;;;;;;28.55;13.05;;;;;;;;;;7388870;19;20112;-75
2024/01/19 01:45:51;;;;;;;30.33;13.50;;;;;;;;;;7366923;19;20010;-74
2024/01/19 01:48:18;;;;;;;27.58;12.73;;;;;;;;;;7367007;19;20046;-74
2024/01/19 01:50:43;;;;;;;28.15;13.23;;;;;;;;;;7367327;19;20749;-75
2024/01/19 01:53:09;;;;;;;31.95;13.23;;;;;;;;;;7366173;19;20085;-75
2024/01/19 01:55:35;;;;;;;28.33;14.60;;;;;;;;;;7390413;19;20031;-75
2024/01/19 01:58:00;;;;;;;30.48;13.65;;;;;;;;;;7367438;19;20010;-75
2024/01/19 02:00:29;;;;;;;31.02;14.13;;;;;;;;;;7368785;19;20021;-75
2024/01/19 02:02:54;;;;;;;27.75;14.75;;;;;;;;;;7368249;19;20010;-75
2024/01/19 02:05:19;;;;;;;39.30;16.50;;;;;;;;;;7367501;19;20021;-75
2024/01/19 02:07:45;;;;;;;36.58;17.20;;;;;;;;;;7375421;19;20006;-75
2024/01/19 02:10:10;;;;;;;29.45;15.57;;;;;;;;;;7396789;19;20024;-75
2024/01/19 02:12:36;;;;;;;35.33;16.73;;;;;;;;;;7361986;19;20065;-75
2024/01/19 02:15:01;;;;;;;36.85;17.10;;;;;;;;;;7363288;19;20022;-75
2024/01/19 02:17:26;;;;;;;37.90;16.90;;;;;;;;;;7364001;19;20010;-74
2024/01/19 02:19:53;;;;;;;36.90;15.45;;;;;;;;;;7364695;19;20009;-75
2024/01/19 02:22:20;;;;;;;32.40;14.43;;;;;;;;;;7386009;19;20023;-75
2024/01/19 02:24:45;;;;;;;30.95;14.63;;;;;;;;;;7364071;19;20013;-75
2024/01/19 02:27:11;;;;;;;32.95;13.70;;;;;;;;;;7363538;19;20351;-75
2024/01/19 02:29:36;;;;;;;28.00;14.93;;;;;;;;;;7367111;19;20007;-75
2024/01/19 02:32:01;;;;;;;26.02;13.43;;;;;;;;;;7366894;19;20013;-75
2024/01/19 02:34:26;;;;;;;31.50;15.43;;;;;;;;;;7387216;19;20074;-75
2024/01/19 02:36:52;;;;;;;39.85;14.70;;;;;;;;;;7365843;19;20819;-75
2024/01/19 02:39:17;;;;;;;31.73;14.68;;;;;;;;;;7364948;19;20010;-75
2024/01/19 02:41:43;;;;;;;35.75;15.05;;;;;;;;;;7365632;19;20103;-75
2024/01/19 02:44:08;;;;;;;38.30;15.18;;;;;;;;;;7365005;19;20527;-75
2024/01/19 02:46:38;;;;;;;33.55;14.50;;;;;;;;;;7387464;19;20006;-75
2024/01/19 02:49:03;;;;;;;33.13;14.93;;;;;;;;;;7365315;19;20014;-75
2024/01/19 02:51:29;;;;;;;29.20;14.13;;;;;;;;;;7364750;19;20099;-75
2024/01/19 02:53:54;;;;;;;29.55;14.15;;;;;;;;;;7365434;19;20017;-75
2024/01/19 02:56:19;;;;;;;30.83;14.48;;;;;;;;;;7365544;19;20713;-75
2024/01/19 02:58:45;;;;;;;35.22;13.48;;;;;;;;;;7365262;19;20014;-75
2024/01/19 03:01:12;;;;;;;30.58;13.02;;;;;;;;;;7387136;19;20010;-75
2024/01/19 03:03:38;;;;;;;30.75;13.45;;;;;;;;;;7364866;19;20073;-75
2024/01/19 03:06:03;;;;;;;30.52;14.13;;;;;;;;;;7364340;19;20628;-75
2024/01/19 03:08:29;;;;;;;35.38;15.05;;;;;;;;;;7364948;19;20795;-75
2024/01/19 03:10:55;;;;;;;31.95;14.93;;;;;;;;;;7364811;19;20027;-75
2024/01/19 03:13:21;;;;;;;33.65;16.90;;;;;;;;;;7386124;19;20100;-75
2024/01/19 03:15:46;;;;;;;35.55;15.93;;;;;;;;;;7365324;19;20019;-75
2024/01/19 03:18:11;;;;;;;31.95;15.48;;;;;;;;;;7364082;19;20013;-75
2024/01/19 03:20:37;;;;;;;25.60;13.13;;;;;;;;;;7365112;19;20014;-75
2024/01/19 03:23:02;;;;;;;33.67;15.93;;;;;;;;;;7364635;19;20157;-75
2024/01/19 03:25:28;;;;;;;33.05;14.82;;;;;;;;;;7390765;19;20006;-75
2024/01/19 03:27:53;;;;;;;25.35;12.20;;;;;;;;;;7370953;19;20034;-75
2024/01/19 03:30:20;;;;;;;25.52;11.07;;;;;;;;;;7372543;19;20657;-75
2024/01/19 03:32:46;;;;;;;36.22;14.32;;;;;;;;;;7371183;19;20013;-75
2024/01/19 03:35:11;;;;;;;33.38;15.02;;;;;;;;;;7371666;19;20448;-75
2024/01/19 03:37:36;;;;;;;34.83;14.80;;;;;;;;;;7393582;19;20022;-75
2024/01/19 03:40:05;;;;;;;31.35;15.80;;;;;;;;;;7372739;19;20014;-75
2024/01/19 03:42:31;;;;;;;29.52;14.10;;;;;;;;;;7371339;19;20006;-75
2024/01/19 03:44:56;;;;;;;27.30;13.60;;;;;;;;;;7371732;19;20006;-75
2024/01/19 03:47:22;;;;;;;32.83;13.90;;;;;;;;;;7370519;19;20006;-73
2024/01/19 03:49:47;;;;;;;29.42;14.52;;;;;;;;;;7373045;19;20437;-74
2024/01/19 03:52:12;;;;;;;29.33;13.88;;;;;;;;;;7397243;19;20484;-75
2024/01/19 03:54:38;;;;;;;25.02;13.75;;;;;;;;;;7371943;19;20015;-73
2024/01/19 03:57:05;;;;;;;35.50;13.63;;;;;;;;;;7371097;19;20354;-73
2024/01/19 03:59:30;;;;;;;26.90;12.88;;;;;;;;;;7371424;19;20003;-73
2024/01/19 04:01:56;;;;;;;31.52;14.15;;;;;;;;;;7372261;19;20351;-76
2024/01/19 04:04:22;;;;;;;25.85;13.10;;;;;;;;;;7391623;19;20480;-73
2024/01/19 04:06:48;;;;;;;34.13;13.35;;;;;;;;;;7371035;19;20018;-73
2024/01/19 04:09:16;;;;;;;33.25;14.43;;;;;;;;;;7370300;19;20014;-75
2024/01/19 04:11:42;;;;;;;35.08;14.57;;;;;;;;;;7369882;19;20010;-73
2024/01/19 04:14:07;;;;;;;34.00;14.00;;;;;;;;;;7373701;19;20122;-74
2024/01/19 04:16:32;;;;;;;30.02;13.68;;;;;;;;;;7399509;19;20020;-73
2024/01/19 04:18:58;;;;;;;30.05;13.70;;;;;;;;;;7374467;19;20010;-74
2024/01/19 04:21:23;;;;;;;26.55;12.52;;;;;;;;;;7371364;19;20014;-74
2024/01/19 04:23:48;;;;;;;31.80;14.15;;;;;;;;;;7369769;19;20111;-74
2024/01/19 04:26:14;;;;;;;34.55;13.90;;;;;;;;;;7370352;19;20027;-74
2024/01/19 04:28:39;;;;;;;29.08;13.55;;;;;;;;;;7382442;19;20449;-75
2024/01/19 04:31:05;;;;;;;30.50;13.88;;;;;;;;;;7384311;19;20457;-74
2024/01/19 04:33:31;;;;;;;32.20;13.57;;;;;;;;;;7370963;19;20417;-74
2024/01/19 04:35:56;;;;;;;32.47;14.52;;;;;;;;;;7371104;19;20006;-74
2024/01/19 04:38:21;;;;;;;32.30;14.75;;;;;;;;;;7369861;19;20691;-74
2024/01/19 04:40:47;;;;;;;36.90;15.20;;;;;;;;;;7370517;19;20006;-74
2024/01/19 04:43:12;;;;;;;35.60;16.67;;;;;;;;;;7390434;19;20006;-74
2024/01/19 04:45:38;;;;;;;36.78;15.07;;;;;;;;;;7369810;19;20009;-74
2024/01/19 04:48:03;;;;;;;34.75;15.05;;;;;;;;;;7369909;19;20135;-74
2024/01/19 04:50:29;;;;;;;28.48;14.60;;;;;;;;;;7372759;19;20014;-75
2024/01/19 04:52:54;;;;;;;29.42;13.85;;;;;;;;;;7367611;19;20002;-75
2024/01/19 04:55:19;;;;;;;39.53;15.38;;;;;;;;;;7389978;19;20334;-74
2024/01/19 04:57:45;;;;;;;34.45;14.52;;;;;;;;;;7367705;19;20399;-74
2024/01/19 05:00:12;;;;;;;35.15;14.73;;;;;;;;;;7382588;19;20024;-75
2024/01/19 05:02:37;;;;;;;32.85;14.88;;;;;;;;;;7367863;19;20007;-75
2024/01/19 05:05:02;;;;;;;34.63;14.05;;;;;;;;;;7368153;19;20476;-75
2024/01/19 05:07:28;;;;;;;30.15;12.52;;;;;;;;;;7388896;19;19999;-75
2024/01/19 05:09:53;;;;;;;26.42;12.82;;;;;;;;;;7363763;19;20537;-73
2024/01/19 05:12:19;;;;;;;34.20;14.32;;;;;;;;;;7365543;19;20002;-75
2024/01/19 05:14:47;;;;;;;33.50;13.45;;;;;;;;;;7366547;19;20006;-73
2024/01/19 05:17:12;;;;;;;29.30;12.82;;;;;;;;;;7368864;19;20007;-74
2024/01/19 05:19:37;;;;;;;29.25;14.18;;;;;;;;;;7390864;19;20498;-74
2024/01/19 05:22:03;;;;;;;31.27;13.90;;;;;;;;;;7368505;19;20071;-74
2024/01/19 05:24:29;;;;;;;30.23;14.07;;;;;;;;;;7368319;19;20007;-73
2024/01/19 05:26:55;;;;;;;30.60;13.77;;;;;;;;;;7369349;19;20078;-74
2024/01/19 05:29:21;;;;;;;31.88;13.35;;;;;;;;;;7369330;19;20572;-74
2024/01/19 05:31:46;;;;;;;33.22;13.30;;;;;;;;;;7367943;19;20036;-74
2024/01/19 05:34:12;;;;;;;29.67;13.15;;;;;;;;;;7393069;19;20469;-74
2024/01/19 05:36:37;;;;;;;29.25;13.15;;;;;;;;;;7373821;19;20013;-74
2024/01/19 05:39:03;;;;;;;25.50;12.32;;;;;;;;;;7363721;19;20033;-74
2024/01/19 05:41:28;;;;;;;29.83;13.27;;;;;;;;;;7368287;19;20007;-74
2024/01/19 05:43:54;;;;;;;28.38;12.32;;;;;;;;;;7366614;19;20377;-74
2024/01/19 05:46:19;;;;;;;28.73;13.18;;;;;;;;;;7398229;19;20010;-73
2024/01/19 05:48:45;;;;;;;32.10;13.40;;;;;;;;;;7390766;19;20054;-73
2024/01/19 05:51:15;;;;;;;32.67;14.20;;;;;;;;;;7389047;19;20041;-73
2024/01/19 05:53:40;;;;;;;27.15;12.80;;;;;;;;;;7376178;19;20576;-74
2024/01/19 05:56:05;;;;;;;27.17;12.68;;;;;;;;;;7377013;19;20010;-74
2024/01/19 05:58:31;;;;;;;27.92;12.27;;;;;;;;;;7399727;19;20517;-74
2024/01/19 06:00:56;;;;;;;31.52;14.25;;;;;;;;;;7366725;19;20003;-74
2024/01/19 06:03:22;;;;;;;25.33;12.68;;;;;;;;;;7369888;19;20010;-74
2024/01/19 06:05:48;;;;;;;29.48;12.55;;;;;;;;;;7371980;19;19998;-74
2024/01/19 06:08:13;;;;;;;32.17;13.43;;;;;;;;;;7370028;19;20010;-74
2024/01/19 06:10:38;;;;;;;28.30;13.82;;;;;;;;;;7397005;19;20006;-76
2024/01/19 06:13:04;;;;;;;33.30;13.75;;;;;;;;;;7374843;19;20003;-74
2024/01/19 06:15:29;;;;;;;30.85;13.52;;;;;;;;;;7373588;19;19999;-74
2024/01/19 06:17:54;;;;;;;25.42;13.65;;;;;;;;;;7373618;19;20021;-74
2024/01/19 06:20:20;;;;;;;25.92;12.18;;;;;;;;;;7374888;19;20011;-74
2024/01/19 06:22:45;;;;;;;26.55;11.63;;;;;;;;;;7373427;19;20019;-74
2024/01/19 06:25:11;;;;;;;28.20;12.73;;;;;;;;;;7391984;19;20062;-76
2024/01/19 06:27:37;;;;;;;28.50;11.90;;;;;;;;;;7379310;19;20011;-74
2024/01/19 06:30:03;;;;;;;26.95;12.38;;;;;;;;;;7379915;19;20014;-74
2024/01/19 06:32:30;;;;;;;27.77;11.52;;;;;;;;;;7385358;19;20211;-74
2024/01/19 06:34:55;;;;;;;30.17;12.45;;;;;;;;;;7372527;19;20006;-74
2024/01/19 06:37:20;;;;;;;32.03;14.27;;;;;;;;;;7392926;19;20033;-74
2024/01/19 06:39:46;;;;;;;29.88;13.05;;;;;;;;;;7372087;19;20002;-74
2024/01/19 06:42:13;;;;;;;23.92;11.57;;;;;;;;;;7370759;19;20067;-74
2024/01/19 06:44:42;;;;;;;29.60;13.57;;;;;;;;;;7368993;19;20462;-74
2024/01/19 06:47:07;;;;;;;30.70;13.68;;;;;;;;;;7368999;19;20406;-74
2024/01/19 06:49:33;;;;;;;30.00;13.93;;;;;;;;;;7387769;19;19998;-74
2024/01/19 06:51:59;;;;;;;31.00;13.93;;;;;;;;;;7365437;19;20002;-74
2024/01/19 06:54:24;;;;;;;43.25;17.90;;;;;;;;;;7363973;19;20010;-74
2024/01/19 06:56:50;;;;;;;37.67;16.77;;;;;;;;;;7365058;19;20002;-74
2024/01/19 06:59:15;;;;;;;38.10;17.85;;;;;;;;;;7358504;19;20006;-74
2024/01/19 07:01:40;;;;;;;40.05;18.30;;;;;;;;;;7368406;19;20575;-76
2024/01/19 07:04:06;;;;;;;45.40;19.08;;;;;;;;;;7401337;19;20006;-75
2024/01/19 07:06:33;;;;;;;37.97;15.40;;;;;;;;;;7380692;19;20006;-74
2024/01/19 07:08:58;;;;;;;39.75;15.60;;;;;;;;;;7376779;19;20022;-74
2024/01/19 07:11:24;;;;;;;39.83;16.25;;;;;;;;;;7377273;19;20014;-74
2024/01/19 07:13:49;;;;;;;33.22;14.65;;;;;;;;;;7375006;19;20489;-74
2024/01/19 07:16:14;;;;;;;38.95;14.70;;;;;;;;;;7397950;19;20018;-74
2024/01/19 07:18:40;;;;;;;32.45;15.20;;;;;;;;;;7374895;19;20357;-74
2024/01/19 07:21:05;;;;;;;28.15;14.73;;;;;;;;;;7382422;19;20011;-74
2024/01/19 07:23:31;;;;;;;33.70;15.25;;;;;;;;;;7375641;19;20009;-74
2024/01/19 07:25:56;;;;;;;32.13;15.00;;;;;;;;;;7376254;19;20761;-75
2024/01/19 07:28:22;;;;;;;34.80;14.98;;;;;;;;;;7396018;19;19991;-74
2024/01/19 07:30:47;;;;;;;28.92;14.05;;;;;;;;;;7374284;19;20007;-74
2024/01/19 07:33:13;;;;;;;30.30;14.63;;;;;;;;;;7373414;19;20027;-74
2024/01/19 07:35:39;;;;;;;35.35;14.65;;;;;;;;;;7375351;19;20007;-74
2024/01/19 07:38:04;;;;;;;37.55;14.05;;;;;;;;;;7376032;19;20010;-74
2024/01/19 07:40:29;;;;;;;33.15;13.45;;;;;;;;;;7400301;19;20038;-74
2024/01/19 07:42:55;;;;;;;32.42;14.27;;;;;;;;;;7377362;19;20062;-75
2024/01/19 07:45:20;;;;;;;36.10;14.65;;;;;;;;;;7376367;19;20013;-75
2024/01/19 07:47:45;;;;;;;39.10;14.90;;;;;;;;;;7375064;19;20010;-74
2024/01/19 07:50:10;;;;;;;34.65;14.60;;;;;;;;;;7375055;19;20006;-74
2024/01/19 07:52:36;;;;;;;33.30;15.00;;;;;;;;;;7394192;19;20508;-76
2024/01/19 07:55:01;;;;;;;36.13;15.35;;;;;;;;;;7373757;19;20006;-75
2024/01/19 07:57:27;;;;;;;32.08;15.48;;;;;;;;;;7372976;19;20512;-75
2024/01/19 07:59:52;;;;;;;34.53;14.80;;;;;;;;;;7374477;19;20006;-75
2024/01/19 08:02:17;;;;;;;31.83;14.25;;;;;;;;;;7365606;19;20014;-75
2024/01/19 08:04:44;;;;;;;38.13;16.40;;;;;;;;;;7374969;19;20007;-75
2024/01/19 08:07:10;;;;;;;40.35;15.20;;;;;;;;;;7400611;19;20010;-77
2024/01/19 08:09:35;;;;;;;37.65;16.58;;;;;;;;;;7379121;19;20013;-75
2024/01/19 08:12:00;;;;;;;38.33;17.27;;;;;;;;;;7369524;19;20005;-74
2024/01/19 08:14:27;;;;;;;37.38;16.25;;;;;;;;;;7365756;19;20028;-74
2024/01/19 08:16:52;;;;;;;40.17;18.33;;;;;;;;;;7367682;19;20086;-75
2024/01/19 08:19:19;;;;;;;37.35;18.20;;;;;;;;;;7387730;19;20481;-74
2024/01/19 08:21:44;;;;;;;37.53;17.45;;;;;;;;;;7367287;19;20036;-77
2024/01/19 08:24:12;;;;;;;41.22;18.05;;;;;;;;;;7367238;19;19998;-76
2024/01/19 08:26:37;;;;;;;32.40;15.98;;;;;;;;;;7367610;19;20066;-76
2024/01/19 08:29:03;;;;;;;29.52;13.55;;;;;;;;;;7367154;19;20006;-74
2024/01/19 08:31:30;;;;;;;27.08;13.52;;;;;;;;;;7387199;19;19999;-76
2024/01/19 08:33:56;;;;;;;21.17;11.55;;;;;;;;;;7364525;19;19999;-74
2024/01/19 08:36:24;;;;;;;24.17;11.52;;;;;;;;;;7361525;19;20369;-74
2024/01/19 08:38:52;;;;;;;20.52;11.50;;;;;;;;;;7365711;19;20013;-75
2024/01/19 08:41:18;;;;;;;22.80;12.15;;;;;;;;;;7369150;19;20022;-74
2024/01/19 08:43:43;;;;;;;26.42;12.73;;;;;;;;;;7363558;19;20260;-75
2024/01/19 08:46:08;;;;;;;22.90;11.93;;;;;;;;;;7388136;19;20889;-74
2024/01/19 08:48:34;;;;;;;23.40;12.05;;;;;;;;;;7367562;19;20374;-74
2024/01/19 08:51:00;;;;;;;24.48;12.65;;;;;;;;;;7364999;19;20034;-74
2024/01/19 08:53:27;;;;;;;22.63;12.25;;;;;;;;;;7365711;19;19999;-74
2024/01/19 08:55:52;;;;;;;24.55;12.07;;;;;;;;;;7369300;19;20016;-75
2024/01/19 08:58:17;;;;;;;23.67;11.55;;;;;;;;;;7389419;19;20002;-74
2024/01/19 09:00:43;;;;;;;23.10;11.68;;;;;;;;;;7368003;19;19999;-75
2024/01/19 09:03:08;;;;;;;28.15;13.60;;;;;;;;;;7366939;19;19999;-74
2024/01/19 09:05:34;;;;;;;26.55;13.35;;;;;;;;;;7366099;19;20388;-73
2024/01/19 09:08:00;;;;;;;26.45;13.48;;;;;;;;;;7365949;19;20461;-74
2024/01/19 09:10:25;;;;;;;25.92;13.45;;;;;;;;;;7387621;19;20005;-74
2024/01/19 09:12:51;;;;;;;24.15;13.27;;;;;;;;;;7362253;19;20170;-75
2024/01/19 09:15:16;;;;;;;28.65;12.48;;;;;;;;;;7365114;19;20524;-74
2024/01/19 09:17:42;;;;;;;26.73;13.13;;;;;;;;;;7364151;19;20010;-74
2024/01/19 09:20:07;;;;;;;29.30;14.25;;;;;;;;;;7364749;19;20606;-74
2024/01/19 09:22:33;;;;;;;23.92;12.25;;;;;;;;;;7385291;19;20894;-75
2024/01/19 09:24:58;;;;;;;26.95;12.88;;;;;;;;;;7364730;19;20009;-74
2024/01/19 09:27:23;;;;;;;22.83;12.25;;;;;;;;;;7363656;19;19999;-76
2024/01/19 09:29:49;;;;;;;24.75;12.40;;;;;;;;;;7365658;19;20006;-75
2024/01/19 09:32:16;;;;;;;23.40;11.90;;;;;;;;;;7364613;19;20006;-77
2024/01/19 09:34:43;;;;;;;21.05;11.48;;;;;;;;;;7363727;19;20069;-75
2024/01/19 09:37:09;;;;;;;21.60;11.35;;;;;;;;;;7385601;19;20002;-74
2024/01/19 09:39:34;;;;;;;22.27;11.52;;;;;;;;;;7364702;19;20568;-74
2024/01/19 09:42:06;;;;;;;20.98;10.88;;;;;;;;;;7365821;19;20014;-74
2024/01/19 09:44:36;;;;;;;20.65;11.60;;;;;;;;;;7366020;19;20013;-76
2024/01/19 09:47:17;;;;;;;21.63;11.23;;;;;;;;;;7368524;19;21164;-75
2024/01/19 09:50:02;;;;;;;21.73;11.45;;;;;;;;;;7371569;19;20661;-76
2024/01/19 09:52:59;;;;;;;22.58;11.07;;;;;;;;;;7390853;19;20009;-74
2024/01/19 09:55:26;;;;;;;20.10;10.38;;;;;;;;;;7368071;19;20030;-75
2024/01/19 09:57:52;;;;;;;21.10;10.73;;;;;;;;;;7366590;19;20481;-74
2024/01/19 10:00:18;;;;;;;21.13;11.15;;;;;;;;;;7367302;19;20006;-76
2024/01/19 10:02:48;;;;;;;16.38;9.93;;;;;;;;;;7364809;19;20082;-75
2024/01/19 10:05:15;;;;;;;23.88;10.93;;;;;;;;;;7363947;19;20011;-74
2024/01/19 10:07:42;;;;;;;16.70;9.57;;;;;;;;;;7362834;19;20007;-74
2024/01/19 10:10:08;;;;;;;17.83;9.02;;;;;;;;;;7385127;19;20014;-74
2024/01/19 10:12:34;;;;;;;16.10;8.80;;;;;;;;;;7362523;19;20010;-74
2024/01/19 10:15:00;;;;;;;19.75;8.63;;;;;;;;;;7362241;19;20014;-77
2024/01/19 10:17:26;;;;;;;17.88;9.05;;;;;;;;;;7361796;19;20006;-74
2024/01/19 10:19:52;;;;;;;17.25;9.63;;;;;;;;;;7358335;19;19998;-74
2024/01/19 10:22:27;;;;;;;16.17;8.57;;;;;;;;;;7385753;19;20084;-76
2024/01/19 10:25:03;;;;;;;16.13;8.00;;;;;;;;;;7362846;19;20348;-74
2024/01/19 10:27:41;;;;;;;13.63;8.07;;;;;;;;;;7362777;19;19998;-75
2024/01/19 10:30:10;;;;;;;15.15;8.10;;;;;;;;;;7363387;19;19994;-75
2024/01/19 10:32:37;;;;;;;13.45;6.97;;;;;;;;;;7363184;19;20002;-77
2024/01/19 10:35:05;;;;;;;12.02;6.95;;;;;;;;;;7365418;19;20013;-75
2024/01/19 10:37:30;;;;;;;13.88;6.97;;;;;;;;;;7387693;19;20005;-77
2024/01/19 10:39:55;;;;;;;13.70;6.93;;;;;;;;;;7365147;19;20747;-76
2024/01/19 10:42:21;;;;;;;13.20;6.88;;;;;;;;;;7363481;19;20006;-76
2024/01/19 10:44:46;;;;;;;16.17;7.50;;;;;;;;;;7362602;19;20003;-77
2024/01/19 10:47:13;;;;;;;15.02;7.45;;;;;;;;;;7365662;19;19998;-77
2024/01/19 10:49:38;;;;;;;15.20;8.07;;;;;;;;;;7385698;19;20319;-76
2024/01/19 10:52:04;;;;;;;12.30;7.25;;;;;;;;;;7367415;19;20062;-77
2024/01/19 10:54:30;;;;;;;15.50;8.52;;;;;;;;;;7368551;19;20006;-77
2024/01/19 10:57:03;;;;;;;14.00;8.27;;;;;;;;;;7379582;19;20027;-76
2024/01/19 10:59:28;;;;;;;16.90;8.57;;;;;;;;;;7389662;19;20002;-78
2024/01/19 11:01:59;;;;;;;15.65;7.70;;;;;;;;;;7397541;19;20342;-78
2024/01/19 11:04:25;;;;;;;16.75;8.07;;;;;;;;;;7404733;19;20019;-76
2024/01/19 11:06:50;;;;;;;16.90;8.07;;;;;;;;;;7370700;19;20031;-75
2024/01/19 11:09:16;;;;;;;16.30;8.07;;;;;;;;;;7369155;19;20006;-77
2024/01/19 11:11:54;;;;;;;17.33;8.40;;;;;;;;;;7365709;19;20065;-77
2024/01/19 11:14:24;;;;;;;19.65;9.07;;;;;;;;;;7361922;19;20007;-76
2024/01/19 11:16:52;;;;;;;17.88;8.93;;;;;;;;;;7364226;19;20672;-78
2024/01/19 11:19:18;;;;;;;16.73;8.07;;;;;;;;;;7388566;19;20015;-78
2024/01/19 11:21:44;;;;;;;19.75;8.80;;;;;;;;;;7370935;19;20460;-76
2024/01/19 11:24:12;;;;;;;17.38;9.13;;;;;;;;;;7364859;19;20001;-76
2024/01/19 11:26:58;;;;;;;18.52;8.50;;;;;;;;;;7363525;19;20566;-76
2024/01/19 11:29:33;;;;;;;17.15;7.80;;;;;;;;;;7362234;19;20009;-76
2024/01/19 11:32:00;;;;;;;16.70;8.10;;;;;;;;;;7365052;19;19994;-78
2024/01/19 11:34:40;;;;;;;20.88;8.27;;;;;;;;;;7384595;19;19998;-77
2024/01/19 11:37:06;;;;;;;13.77;7.53;;;;;;;;;;7360165;19;19999;-76
2024/01/19 11:39:41;;;;;;;16.25;8.30;;;;;;;;;;7361633;19;20014;-76
2024/01/19 11:42:42;;;;;;;14.77;8.15;;;;;;;;;;7366050;19;19999;-78
2024/01/19 11:45:08;;;;;;;16.23;8.68;;;;;;;;;;7371335;19;20019;-76
2024/01/19 11:47:36;;;;;;;13.57;7.47;;;;;;;;;;7369629;19;20002;-77
2024/01/19 11:50:13;;;;;;;16.35;8.75;;;;;;;;;;7369353;19;20483;-77
2024/01/19 11:52:42;;;;;;;15.68;8.20;;;;;;;;;;7400028;19;19995;-79
2024/01/19 11:55:26;;;;;;;13.98;7.95;;;;;;;;;;7372306;19;20009;-77
2024/01/19 11:57:53;;;;;;;16.23;7.47;;;;;;;;;;7373687;19;20006;-77
2024/01/19 12:00:21;;;;;;;16.85;8.85;;;;;;;;;;7368435;19;20006;-79
2024/01/19 12:02:47;;;;;;;13.10;7.60;;;;;;;;;;7367479;19;20009;-77
2024/01/19 12:05:14;;;;;;;12.25;7.10;;;;;;;;;;7367625;19;20003;-77
2024/01/19 12:07:41;;;;;;;12.98;6.95;;;;;;;;;;7384591;19;20687;-80
2024/01/19 12:10:09;;;;;;;13.80;7.75;;;;;;;;;;7394472;19;20013;-79
2024/01/19 12:12:35;;;;;;;14.38;7.45;;;;;;;;;;7369544;19;20596;-80
2024/01/19 12:15:02;;;;;;;13.43;7.38;;;;;;;;;;7373157;19;20035;-79
2024/01/19 12:17:28;;;;;;;14.90;7.50;;;;;;;;;;7368584;19;20043;-78
2024/01/19 12:19:54;;;;;;;14.68;7.88;;;;;;;;;;7376381;19;20028;-80
2024/01/19 12:22:20;;;;;;;14.23;8.45;;;;;;;;;;7415865;19;20007;-78
2024/01/19 12:24:45;;;;;;;14.45;8.50;;;;;;;;;;7372620;19;20026;-78
2024/01/19 12:27:19;;;;;;;16.58;8.05;;;;;;;;;;7371381;19;20512;-78
2024/01/19 12:29:45;;;;;;;16.98;8.18;;;;;;;;;;7370047;19;20002;-78
2024/01/19 12:32:12;;;;;;;15.98;7.97;;;;;;;;;;7370084;19;20031;-78
2024/01/19 12:34:38;;;;;;;17.15;8.07;;;;;;;;;;7389607;19;20374;-80
2024/01/19 12:37:04;;;;;;;13.65;7.50;;;;;;;;;;7369907;19;20074;-79
2024/01/19 12:39:30;;;;;;;17.90;8.23;;;;;;;;;;7369100;19;20046;-80
2024/01/19 12:42:13;;;;;;;13.73;8.10;;;;;;;;;;7370513;19;20050;-80
2024/01/19 12:44:38;;;;;;;15.15;8.55;;;;;;;;;;7368037;19;20010;-79
2024/01/19 12:47:04;;;;;;;19.10;9.15;;;;;;;;;;7369691;19;20014;-78
2024/01/19 12:49:29;;;;;;;17.67;7.82;;;;;;;;;;7394014;19;20014;-80
2024/01/19 12:51:55;;;;;;;17.77;9.02;;;;;;;;;;7381950;19;20011;-80
2024/01/19 12:54:20;;;;;;;20.23;9.45;;;;;;;;;;7382885;19;20075;-81
2024/01/19 12:56:48;;;;;;;18.38;9.32;;;;;;;;;;7382865;19;20006;-82
2024/01/19 12:59:19;;;;;;;21.02;10.20;;;;;;;;;;7371729;19;20006;-81
2024/01/19 13:01:53;;;;;;;20.30;9.85;;;;;;;;;;7370362;19;19999;-84
2024/01/19 13:04:19;;;;;;;20.48;9.27;;;;;;;;;;7389509;19;20035;-82
2024/01/19 13:06:44;;;;;;;18.55;9.38;;;;;;;;;;7371653;19;20007;-82
2024/01/19 13:09:14;;;;;;;22.38;9.73;;;;;;;;;;7383369;19;19995;-82
2024/01/19 13:11:39;;;;;;;21.45;9.80;;;;;;;;;;7396948;19;20010;-83
2024/01/19 13:14:07;;;;;;;19.95;9.77;;;;;;;;;;7401036;19;20010;-83
2024/01/19 13:16:33;;;;;;;21.10;10.20;;;;;;;;;;7409218;19;20122;-82
2024/01/19 13:19:02;;;;;;;16.80;9.00;;;;;;;;;;7373800;19;20006;-82
2024/01/19 13:21:28;;;;;;;18.60;9.43;;;;;;;;;;7372010;19;20009;-83
2024/01/19 13:23:54;;;;;;;19.30;9.10;;;;;;;;;;7372507;19;20109;-82
2024/01/19 13:26:19;;;;;;;19.98;9.65;;;;;;;;;;7371249;19;20006;-80
2024/01/19 13:28:47;;;;;;;17.10;8.65;;;;;;;;;;7369263;19;20068;-78
2024/01/19 13:31:16;;;;;;;25.73;9.98;;;;;;;;;;7393134;19;19999;-79
2024/01/19 13:33:45;;;;;;;18.83;9.63;;;;;;;;;;7380724;19;20082;-78
2024/01/19 13:36:20;;;;;;;20.60;9.48;;;;;;;;;;7371551;19;20842;-78
2024/01/19 13:38:46;;;;;;;21.67;9.82;;;;;;;;;;7368592;19;19999;-78
2024/01/19 13:41:13;;;;;;;18.92;10.00;;;;;;;;;;7368475;19;20003;-78
2024/01/19 13:43:44;;;;;;;22.92;10.50;;;;;;;;;;7387435;19;19999;-77
2024/01/19 13:46:10;;;;;;;20.42;10.15;;;;;;;;;;7366916;19;20003;-78
2024/01/19 13:48:36;;;;;;;16.80;9.55;;;;;;;;;;7368743;19;20896;-78
2024/01/19 13:51:01;;;;;;;19.42;9.30;;;;;;;;;;7371252;19;20021;-78
2024/01/19 13:53:26;;;;;;;19.42;9.43;;;;;;;;;;7367381;19;20078;-78
2024/01/19 13:55:52;;;;;;;20.90;10.23;;;;;;;;;;7368309;19;20021;-78
2024/01/19 13:58:18;;;;;;;22.38;9.88;;;;;;;;;;7387447;19;20487;-77
2024/01/19 14:00:44;;;;;;;19.02;9.75;;;;;;;;;;7367822;19;20413;-79
2024/01/19 14:03:12;;;;;;;20.65;10.07;;;;;;;;;;7368903;19;20006;-78
2024/01/19 14:05:38;;;;;;;23.20;10.63;;;;;;;;;;7372450;19;20010;-77
2024/01/19 14:08:05;;;;;;;20.05;9.40;;;;;;;;;;7379268;19;20370;-77
2024/01/19 14:10:30;;;;;;;19.95;9.90;;;;;;;;;;7389043;19;20413;-78
2024/01/19 14:12:56;;;;;;;19.70;10.02;;;;;;;;;;7371385;19;20002;-77
2024/01/19 14:15:22;;;;;;;20.00;10.05;;;;;;;;;;7365946;19;20203;-77
2024/01/19 14:17:47;;;;;;;18.63;9.63;;;;;;;;;;7366336;19;20006;-78